sensor_id;sensor_type;location;lat;lon;timestamp;pressure;altitude;pressure_sealevel;temperature;humidity
59367;BME280;45163;47.690;11.770;2023-06-22T00:02:18;93500.66;;;18.82;100.00
59367;BME280;45163;47.690;11.770;2023-06-22T00:04:44;93479.28;;;19.03;100.00
59367;BME280;45163;47.690;11.770;2023-06-22T00:07:10;93468.22;;;19.03;100.00
59367;BME280;45163;47.690;11.770;2023-06-22T00:09:36;93471.59;;;18.92;100.00
59367;BME280;45163;47.690;11.770;2023-06-22T00:12:03;93464.50;;;18.85;100.00
59367;BME280;45163;47.690;11.770;2023-06-22T00:14:29;93458.31;;;18.76;100.00
59367;BME280;45163;47.690;11.770;2023-06-22T00:16:55;93460.06;;;18.73;100.00
59367;BME280;45163;47.690;11.770;2023-06-22T00:19:23;93470.09;;;18.71;100.00
59367;BME280;45163;47.690;11.770;2023-06-22T00:21:52;93469.97;;;18.45;100.00
59367;BME280;45163;47.690;11.770;2023-06-22T00:24:19;93465.19;;;18.45;100.00
59367;BME280;45163;47.690;11.770;2023-06-22T00:26:47;93470.34;;;18.37;100.00
59367;BME280;45163;47.690;11.770;2023-06-22T00:29:13;93468.09;;;18.21;100.00
59367;BME280;45163;47.690;11.770;2023-06-22T00:31:39;93469.72;;;18.28;100.00
59367;BME280;45163;47.690;11.770;2023-06-22T00:34:05;93463.06;;;18.20;100.00
59367;BME280;45163;47.690;11.770;2023-06-22T00:36:35;93467.53;;;18.17;100.00
59367;BME280;45163;47.690;11.770;2023-06-22T00:39:01;93461.66;;;18.09;100.00
59367;BME280;45163;47.690;11.770;2023-06-22T00:41:28;93463.09;;;18.05;100.00
59367;BME280;45163;47.690;11.770;2023-06-22T00:43:54;93454.59;;;18.08;100.00
59367;BME280;45163;47.690;11.770;2023-06-22T00:46:21;93461.44;;;18.13;100.00
59367;BME280;45163;47.690;11.770;2023-06-22T00:48:49;93456.53;;;18.02;100.00
59367;BME280;45163;47.690;11.770;2023-06-22T00:51:16;93457.47;;;17.99;100.00
59367;BME280;45163;47.690;11.770;2023-06-22T00:53:42;93445.28;;;18.06;100.00
59367;BME280;45163;47.690;11.770;2023-06-22T00:56:08;93445.56;;;18.08;100.00
59367;BME280;45163;47.690;11.770;2023-06-22T00:58:38;93444.44;;;18.00;100.00
59367;BME280;45163;47.690;11.770;2023-06-22T01:01:07;93440.53;;;17.91;100.00
59367;BME280;45163;47.690;11.770;2023-06-22T01:03:33;93448.91;;;17.67;100.00
59367;BME280;45163;47.690;11.770;2023-06-22T01:06:08;93440.06;;;17.49;100.00
59367;BME280;45163;47.690;11.770;2023-06-22T01:11:41;93440.94;;;17.70;100.00
59367;BME280;45163;47.690;11.770;2023-06-22T01:16:36;93444.84;;;17.48;100.00
59367;BME280;45163;47.690;11.770;2023-06-22T01:19:37;93425.59;;;17.54;100.00
59367;BME280;45163;47.690;11.770;2023-06-22T01:22:08;93443.56;;;17.34;100.00
59367;BME280;45163;47.690;11.770;2023-06-22T01:30:07;93441.31;;;17.48;100.00
59367;BME280;45163;47.690;11.770;2023-06-22T01:32:37;93426.25;;;17.34;100.00
59367;BME280;45163;47.690;11.770;2023-06-22T01:35:06;93425.22;;;17.46;100.00
59367;BME280;45163;47.690;11.770;2023-06-22T01:37:34;93427.81;;;17.35;100.00
59367;BME280;45163;47.690;11.770;2023-06-22T01:40:02;93425.81;;;17.35;100.00
59367;BME280;45163;47.690;11.770;2023-06-22T01:42:30;93429.22;;;17.45;100.00
59367;BME280;45163;47.690;11.770;2023-06-22T01:44:57;93424.84;;;17.24;100.00
59367;BME280;45163;47.690;11.770;2023-06-22T01:47:24;93427.78;;;17.20;100.00
59367;BME280;45163;47.690;11.770;2023-06-22T01:49:50;93427.78;;;17.20;100.00
59367;BME280;45163;47.690;11.770;2023-06-22T01:52:19;93429.22;;;17.30;100.00
59367;BME280;45163;47.690;11.770;2023-06-22T01:54:47;93424.94;;;17.29;100.00
59367;BME280;45163;47.690;11.770;2023-06-22T01:57:14;93427.78;;;17.20;100.00
59367;BME280;45163;47.690;11.770;2023-06-22T02:02:24;93416.84;;;17.11;100.00
59367;BME280;45163;47.690;11.770;2023-06-22T02:05:09;93416.75;;;17.20;100.00
59367;BME280;45163;47.690;11.770;2023-06-22T02:07:46;93417.13;;;17.13;100.00
59367;BME280;45163;47.690;11.770;2023-06-22T02:10:15;93410.75;;;17.22;100.00
59367;BME280;45163;47.690;11.770;2023-06-22T02:12:43;93414.09;;;17.26;100.00
59367;BME280;45163;47.690;11.770;2023-06-22T02:15:10;93411.50;;;17.22;100.00
59367;BME280;45163;47.690;11.770;2023-06-22T02:17:38;93413.22;;;17.05;100.00
59367;BME280;45163;47.690;11.770;2023-06-22T02:20:04;93417.78;;;16.93;100.00
59367;BME280;45163;47.690;11.770;2023-06-22T02:22:33;93412.78;;;16.82;100.00
59367;BME280;45163;47.690;11.770;2023-06-22T02:24:59;93413.63;;;16.74;100.00
59367;BME280;45163;47.690;11.770;2023-06-22T02:27:25;93413.56;;;16.83;100.00
59367;BME280;45163;47.690;11.770;2023-06-22T02:29:51;93417.06;;;16.83;100.00
59367;BME280;45163;47.690;11.770;2023-06-22T02:32:17;93413.69;;;16.64;100.00
59367;BME280;45163;47.690;11.770;2023-06-22T02:34:43;93417.66;;;16.63;100.00
59367;BME280;45163;47.690;11.770;2023-06-22T02:37:13;93418.81;;;16.72;100.00
59367;BME280;45163;47.690;11.770;2023-06-22T02:39:42;93424.22;;;16.90;100.00
59367;BME280;45163;47.690;11.770;2023-06-22T02:42:08;93421.28;;;16.93;100.00
59367;BME280;45163;47.690;11.770;2023-06-22T02:44:36;93417.28;;;16.95;100.00
59367;BME280;45163;47.690;11.770;2023-06-22T02:47:03;93426.31;;;16.95;100.00
59367;BME280;45163;47.690;11.770;2023-06-22T02:49:29;93425.84;;;16.97;100.00
59367;BME280;45163;47.690;11.770;2023-06-22T02:51:55;93425.38;;;16.98;100.00
59367;BME280;45163;47.690;11.770;2023-06-22T02:54:21;93424.81;;;16.94;100.00
59367;BME280;45163;47.690;11.770;2023-06-22T02:56:47;93418.41;;;16.88;100.00
59367;BME280;45163;47.690;11.770;2023-06-22T02:59:13;93419.94;;;16.89;100.00
59367;BME280;45163;47.690;11.770;2023-06-22T03:01:39;93426.22;;;16.89;100.00
59367;BME280;45163;47.690;11.770;2023-06-22T03:04:06;93421.47;;;16.90;100.00
59367;BME280;45163;47.690;11.770;2023-06-22T03:06:33;93425.53;;;16.80;100.00
59367;BME280;45163;47.690;11.770;2023-06-22T03:09:02;93435.91;;;16.61;100.00
59367;BME280;45163;47.690;11.770;2023-06-22T03:11:30;93439.47;;;16.52;100.00
59367;BME280;45163;47.690;11.770;2023-06-22T03:13:57;93439.25;;;16.65;100.00
59367;BME280;45163;47.690;11.770;2023-06-22T03:16:23;93441.06;;;16.68;100.00
59367;BME280;45163;47.690;11.770;2023-06-22T03:18:49;93442.00;;;16.65;100.00
59367;BME280;45163;47.690;11.770;2023-06-22T03:21:15;93450.22;;;16.74;100.00
59367;BME280;45163;47.690;11.770;2023-06-22T03:23:42;93446.84;;;16.70;100.00
59367;BME280;45163;47.690;11.770;2023-06-22T03:26:09;93449.03;;;16.66;100.00
59367;BME280;45163;47.690;11.770;2023-06-22T03:28:36;93449.28;;;16.53;100.00
59367;BME280;45163;47.690;11.770;2023-06-22T03:31:03;93455.53;;;16.54;100.00
59367;BME280;45163;47.690;11.770;2023-06-22T03:33:29;93453.03;;;16.65;100.00
59367;BME280;45163;47.690;11.770;2023-06-22T03:35:55;93460.16;;;16.72;100.00
59367;BME280;45163;47.690;11.770;2023-06-22T03:38:21;93452.31;;;16.79;100.00
59367;BME280;45163;47.690;11.770;2023-06-22T03:40:47;93454.81;;;16.77;100.00
59367;BME280;45163;47.690;11.770;2023-06-22T03:43:13;93466.41;;;16.81;100.00
59367;BME280;45163;47.690;11.770;2023-06-22T03:45:39;93451.88;;;16.81;100.00
59367;BME280;45163;47.690;11.770;2023-06-22T03:48:06;93461.59;;;16.91;100.00
59367;BME280;45163;47.690;11.770;2023-06-22T03:50:32;93455.72;;;16.98;100.00
59367;BME280;45163;47.690;11.770;2023-06-22T03:52:58;93465.06;;;17.15;100.00
59367;BME280;45163;47.690;11.770;2023-06-22T03:55:24;93459.25;;;17.13;100.00
59367;BME280;45163;47.690;11.770;2023-06-22T03:57:50;93459.94;;;17.23;100.00
59367;BME280;45163;47.690;11.770;2023-06-22T04:00:16;93463.38;;;17.18;100.00
59367;BME280;45163;47.690;11.770;2023-06-22T04:02:42;93460.13;;;17.20;100.00
59367;BME280;45163;47.690;11.770;2023-06-22T04:05:11;93464.22;;;17.24;100.00
59367;BME280;45163;47.690;11.770;2023-06-22T04:07:37;93459.75;;;17.27;100.00
59367;BME280;45163;47.690;11.770;2023-06-22T04:10:04;93455.84;;;17.33;100.00
59367;BME280;45163;47.690;11.770;2023-06-22T04:12:30;93447.22;;;17.40;100.00
59367;BME280;45163;47.690;11.770;2023-06-22T04:14:56;93454.63;;;17.49;100.00
59367;BME280;45163;47.690;11.770;2023-06-22T04:17:22;93451.31;;;17.60;100.00
59367;BME280;45163;47.690;11.770;2023-06-22T04:19:51;93448.16;;;17.52;100.00
59367;BME280;45163;47.690;11.770;2023-06-22T04:22:17;93448.94;;;17.53;100.00
59367;BME280;45163;47.690;11.770;2023-06-22T04:24:44;93443.88;;;17.66;100.00
59367;BME280;45163;47.690;11.770;2023-06-22T04:27:10;93444.25;;;17.59;100.00
59367;BME280;45163;47.690;11.770;2023-06-22T04:29:37;93443.34;;;17.77;100.00
59367;BME280;45163;47.690;11.770;2023-06-22T04:32:04;93434.19;;;17.85;100.00
59367;BME280;45163;47.690;11.770;2023-06-22T04:34:31;93436.47;;;17.87;100.00
59367;BME280;45163;47.690;11.770;2023-06-22T04:36:58;93436.22;;;18.05;100.00
59367;BME280;45163;47.690;11.770;2023-06-22T04:39:24;93432.69;;;18.05;100.00
59367;BME280;45163;47.690;11.770;2023-06-22T04:41:51;93430.38;;;18.18;100.00
59367;BME280;45163;47.690;11.770;2023-06-22T04:44:18;93431.22;;;18.24;100.00
59367;BME280;45163;47.690;11.770;2023-06-22T04:46:55;93420.69;;;18.43;100.00
59367;BME280;45163;47.690;11.770;2023-06-22T04:49:26;93418.25;;;18.51;100.00
59367;BME280;45163;47.690;11.770;2023-06-22T04:51:59;93420.69;;;18.63;100.00
59367;BME280;45163;47.690;11.770;2023-06-22T04:54:25;93416.22;;;18.86;100.00
59367;BME280;45163;47.690;11.770;2023-06-22T04:56:52;93404.06;;;19.25;100.00
59367;BME280;45163;47.690;11.770;2023-06-22T04:59:25;93382.66;;;19.51;100.00
59367;BME280;45163;47.690;11.770;2023-06-22T05:01:54;93388.97;;;19.83;100.00
59367;BME280;45163;47.690;11.770;2023-06-22T05:04:21;93385.72;;;19.85;100.00
59367;BME280;45163;47.690;11.770;2023-06-22T05:06:49;93382.81;;;20.00;100.00
59367;BME280;45163;47.690;11.770;2023-06-22T05:09:15;93384.09;;;20.04;100.00
59367;BME280;45163;47.690;11.770;2023-06-22T05:11:43;93376.22;;;19.97;100.00
59367;BME280;45163;47.690;11.770;2023-06-22T05:14:09;93390.16;;;20.08;100.00
59367;BME280;45163;47.690;11.770;2023-06-22T05:16:36;93386.13;;;20.09;100.00
59367;BME280;45163;47.690;11.770;2023-06-22T05:19:02;93378.34;;;20.13;100.00
59367;BME280;45163;47.690;11.770;2023-06-22T05:21:32;93376.63;;;20.22;100.00
59367;BME280;45163;47.690;11.770;2023-06-22T05:23:58;93374.69;;;20.33;100.00
59367;BME280;45163;47.690;11.770;2023-06-22T05:26:32;93371.19;;;20.38;100.00
59367;BME280;45163;47.690;11.770;2023-06-22T05:28:59;93379.59;;;20.50;100.00
59367;BME280;45163;47.690;11.770;2023-06-22T05:31:26;93378.31;;;20.51;100.00
59367;BME280;45163;47.690;11.770;2023-06-22T05:33:54;93380.06;;;20.48;100.00
59367;BME280;45163;47.690;11.770;2023-06-22T05:36:21;93375.84;;;20.58;100.00
59367;BME280;45163;47.690;11.770;2023-06-22T05:38:49;93381.94;;;20.68;100.00
59367;BME280;45163;47.690;11.770;2023-06-22T05:41:15;93373.59;;;20.62;100.00
59367;BME280;45163;47.690;11.770;2023-06-22T05:43:41;93380.66;;;20.69;100.00
59367;BME280;45163;47.690;11.770;2023-06-22T05:46:07;93378.22;;;20.88;100.00
59367;BME280;45163;47.690;11.770;2023-06-22T05:48:33;93373.22;;;21.03;100.00
59367;BME280;45163;47.690;11.770;2023-06-22T05:50:59;93374.03;;;21.26;100.00
59367;BME280;45163;47.690;11.770;2023-06-22T05:53:25;93359.66;;;21.28;100.00
59367;BME280;45163;47.690;11.770;2023-06-22T05:55:51;93373.06;;;21.52;100.00
59367;BME280;45163;47.690;11.770;2023-06-22T05:58:17;93358.94;;;21.55;100.00
59367;BME280;45163;47.690;11.770;2023-06-22T06:00:43;93373.06;;;22.13;100.00
59367;BME280;45163;47.690;11.770;2023-06-22T06:03:10;93365.97;;;22.24;100.00
59367;BME280;45163;47.690;11.770;2023-06-22T06:05:37;93362.84;;;22.55;100.00
59367;BME280;45163;47.690;11.770;2023-06-22T06:08:05;93358.69;;;22.84;100.00
59367;BME280;45163;47.690;11.770;2023-06-22T06:10:33;93353.94;;;23.26;100.00
59367;BME280;45163;47.690;11.770;2023-06-22T06:12:59;93347.66;;;23.56;100.00
59367;BME280;45163;47.690;11.770;2023-06-22T06:15:31;93347.56;;;23.73;100.00
59367;BME280;45163;47.690;11.770;2023-06-22T06:17:57;93338.50;;;24.21;100.00
59367;BME280;45163;47.690;11.770;2023-06-22T06:20:25;93341.81;;;24.69;100.00
59367;BME280;45163;47.690;11.770;2023-06-22T06:22:52;93341.59;;;24.85;100.00
59367;BME280;45163;47.690;11.770;2023-06-22T06:25:18;93339.50;;;24.92;100.00
59367;BME280;45163;47.690;11.770;2023-06-22T06:27:46;93339.69;;;25.18;100.00
59367;BME280;45163;47.690;11.770;2023-06-22T06:30:14;93334.75;;;25.75;100.00
59367;BME280;45163;47.690;11.770;2023-06-22T06:32:41;93341.44;;;26.04;100.00
59367;BME280;45163;47.690;11.770;2023-06-22T06:35:10;93339.78;;;26.54;100.00
59367;BME280;45163;47.690;11.770;2023-06-22T06:37:38;93328.34;;;26.79;100.00
59367;BME280;45163;47.690;11.770;2023-06-22T06:40:08;93326.56;;;27.16;100.00
59367;BME280;45163;47.690;11.770;2023-06-22T06:42:37;93320.50;;;27.38;100.00
59367;BME280;45163;47.690;11.770;2023-06-22T06:45:07;93321.53;;;27.69;100.00
59367;BME280;45163;47.690;11.770;2023-06-22T06:47:33;93310.06;;;28.22;100.00
59367;BME280;45163;47.690;11.770;2023-06-22T06:49:59;93311.03;;;28.33;100.00
59367;BME280;45163;47.690;11.770;2023-06-22T06:52:25;93312.78;;;28.64;100.00
59367;BME280;45163;47.690;11.770;2023-06-22T06:54:52;93306.09;;;28.75;100.00
59367;BME280;45163;47.690;11.770;2023-06-22T06:57:18;93309.63;;;29.04;100.00
59367;BME280;45163;47.690;11.770;2023-06-22T06:59:46;93311.06;;;29.41;100.00
59367;BME280;45163;47.690;11.770;2023-06-22T07:02:12;93307.06;;;29.96;100.00
59367;BME280;45163;47.690;11.770;2023-06-22T07:04:38;93300.09;;;29.74;100.00
59367;BME280;45163;47.690;11.770;2023-06-22T07:07:04;93289.63;;;29.97;97.25
59367;BME280;45163;47.690;11.770;2023-06-22T07:09:30;93300.88;;;30.43;93.71
59367;BME280;45163;47.690;11.770;2023-06-22T07:11:56;93297.84;;;30.57;87.22
59367;BME280;45163;47.690;11.770;2023-06-22T07:14:22;93298.38;;;30.63;83.87
59367;BME280;45163;47.690;11.770;2023-06-22T07:16:48;93298.00;;;31.37;81.11
59367;BME280;45163;47.690;11.770;2023-06-22T07:19:14;93294.13;;;31.10;81.72
59367;BME280;45163;47.690;11.770;2023-06-22T07:21:40;93293.25;;;30.99;89.68
59367;BME280;45163;47.690;11.770;2023-06-22T07:24:07;93294.19;;;30.94;89.94
59367;BME280;45163;47.690;11.770;2023-06-22T07:26:33;93289.63;;;31.87;80.68
59367;BME280;45163;47.690;11.770;2023-06-22T07:28:59;93284.03;;;31.72;88.27
59367;BME280;45163;47.690;11.770;2023-06-22T07:31:26;93283.63;;;32.08;84.93
59367;BME280;45163;47.690;11.770;2023-06-22T07:33:52;93285.19;;;32.02;82.32
59367;BME280;45163;47.690;11.770;2023-06-22T07:36:18;93285.56;;;32.23;80.23
59367;BME280;45163;47.690;11.770;2023-06-22T07:38:44;93280.44;;;32.29;76.09
59367;BME280;45163;47.690;11.770;2023-06-22T07:41:10;93280.25;;;32.52;75.46
59367;BME280;45163;47.690;11.770;2023-06-22T07:43:36;93274.63;;;33.04;76.62
59367;BME280;45163;47.690;11.770;2023-06-22T07:46:03;93276.59;;;33.29;67.47
59367;BME280;45163;47.690;11.770;2023-06-22T07:48:29;93272.91;;;33.90;66.19
59367;BME280;45163;47.690;11.770;2023-06-22T07:50:55;93275.75;;;33.90;59.86
59367;BME280;45163;47.690;11.770;2023-06-22T07:53:22;93272.91;;;34.27;63.43
59367;BME280;45163;47.690;11.770;2023-06-22T07:55:49;93275.16;;;33.37;59.08
59367;BME280;45163;47.690;11.770;2023-06-22T07:58:15;93270.03;;;34.73;61.07
59367;BME280;45163;47.690;11.770;2023-06-22T08:00:44;93278.00;;;34.28;63.37
59367;BME280;45163;47.690;11.770;2023-06-22T08:03:10;93274.41;;;34.28;65.48
59367;BME280;45163;47.690;11.770;2023-06-22T08:05:36;93270.69;;;33.17;67.48
59367;BME280;45163;47.690;11.770;2023-06-22T08:08:02;93276.78;;;32.61;70.65
59367;BME280;45163;47.690;11.770;2023-06-22T08:10:28;93279.59;;;32.79;70.48
59367;BME280;45163;47.690;11.770;2023-06-22T08:12:55;93275.09;;;32.76;68.65
59367;BME280;45163;47.690;11.770;2023-06-22T08:15:21;93284.03;;;33.51;66.45
59367;BME280;45163;47.690;11.770;2023-06-22T08:17:47;93279.09;;;32.72;69.25
59367;BME280;45163;47.690;11.770;2023-06-22T08:20:13;93279.84;;;33.97;65.52
59367;BME280;45163;47.690;11.770;2023-06-22T08:22:41;93282.50;;;33.94;64.07
59367;BME280;45163;47.690;11.770;2023-06-22T08:25:08;93284.53;;;34.11;60.78
59367;BME280;45163;47.690;11.770;2023-06-22T08:27:34;93270.22;;;34.85;57.09
59367;BME280;45163;47.690;11.770;2023-06-22T08:30:01;93267.06;;;33.07;62.00
59367;BME280;45163;47.690;11.770;2023-06-22T08:32:28;93274.69;;;32.62;69.30
59367;BME280;45163;47.690;11.770;2023-06-22T08:34:57;93266.06;;;34.30;64.72
59367;BME280;45163;47.690;11.770;2023-06-22T08:37:24;93260.41;;;33.39;66.32
59367;BME280;45163;47.690;11.770;2023-06-22T08:39:58;93261.81;;;32.86;68.47
59367;BME280;45163;47.690;11.770;2023-06-22T08:42:24;93263.75;;;33.45;68.31
59367;BME280;45163;47.690;11.770;2023-06-22T08:44:51;93262.81;;;33.15;72.42
59367;BME280;45163;47.690;11.770;2023-06-22T08:47:17;93269.78;;;34.79;60.13
59367;BME280;45163;47.690;11.770;2023-06-22T08:49:43;93270.50;;;35.37;59.11
59367;BME280;45163;47.690;11.770;2023-06-22T08:52:09;93268.75;;;34.28;59.22
59367;BME280;45163;47.690;11.770;2023-06-22T08:54:35;93270.19;;;35.53;57.97
59367;BME280;45163;47.690;11.770;2023-06-22T08:57:02;93265.41;;;34.58;54.66
59367;BME280;45163;47.690;11.770;2023-06-22T08:59:28;93266.03;;;34.76;58.13
59367;BME280;45163;47.690;11.770;2023-06-22T09:01:54;93275.75;;;35.22;55.70
59367;BME280;45163;47.690;11.770;2023-06-22T09:04:20;93270.56;;;35.88;49.03
59367;BME280;45163;47.690;11.770;2023-06-22T09:06:49;93257.84;;;35.89;52.98
59367;BME280;45163;47.690;11.770;2023-06-22T09:09:16;93252.28;;;35.50;53.06
59367;BME280;45163;47.690;11.770;2023-06-22T09:11:42;93253.63;;;36.31;54.75
59367;BME280;45163;47.690;11.770;2023-06-22T09:14:09;93252.00;;;36.80;51.00
59367;BME280;45163;47.690;11.770;2023-06-22T09:16:35;93252.09;;;36.71;46.27
59367;BME280;45163;47.690;11.770;2023-06-22T09:19:01;93257.56;;;36.26;48.78
59367;BME280;45163;47.690;11.770;2023-06-22T09:21:27;93257.19;;;34.53;63.31
59367;BME280;45163;47.690;11.770;2023-06-22T09:23:54;93254.34;;;33.97;71.94
59367;BME280;45163;47.690;11.770;2023-06-22T09:26:20;93253.53;;;33.86;73.88
59367;BME280;45163;47.690;11.770;2023-06-22T09:28:50;93242.16;;;34.99;66.88
59367;BME280;45163;47.690;11.770;2023-06-22T09:31:16;93250.53;;;35.16;69.17
59367;BME280;45163;47.690;11.770;2023-06-22T09:33:42;93250.19;;;36.01;67.36
59367;BME280;45163;47.690;11.770;2023-06-22T09:36:09;93244.41;;;35.00;64.36
59367;BME280;45163;47.690;11.770;2023-06-22T09:38:38;93251.69;;;35.23;66.59
59367;BME280;45163;47.690;11.770;2023-06-22T09:41:04;93244.28;;;36.71;61.43
59367;BME280;45163;47.690;11.770;2023-06-22T09:43:31;93239.94;;;35.77;61.59
59367;BME280;45163;47.690;11.770;2023-06-22T09:45:58;93253.66;;;34.15;74.12
59367;BME280;45163;47.690;11.770;2023-06-22T09:48:30;93247.50;;;35.24;66.86
59367;BME280;45163;47.690;11.770;2023-06-22T09:50:56;93234.53;;;34.62;73.33
59367;BME280;45163;47.690;11.770;2023-06-22T09:53:22;93237.25;;;36.51;64.12
59367;BME280;45163;47.690;11.770;2023-06-22T09:55:48;93238.16;;;36.86;57.99
59367;BME280;45163;47.690;11.770;2023-06-22T09:58:14;93224.91;;;37.01;58.78
59367;BME280;45163;47.690;11.770;2023-06-22T10:00:40;93233.66;;;36.50;56.00
59367;BME280;45163;47.690;11.770;2023-06-22T10:03:07;93226.22;;;37.21;52.23
59367;BME280;45163;47.690;11.770;2023-06-22T10:05:33;93228.44;;;36.15;57.93
59367;BME280;45163;47.690;11.770;2023-06-22T10:07:59;93229.72;;;36.55;56.66
59367;BME280;45163;47.690;11.770;2023-06-22T10:10:25;93224.72;;;37.42;51.96
59367;BME280;45163;47.690;11.770;2023-06-22T10:12:56;93222.63;;;37.54;50.30
59367;BME280;45163;47.690;11.770;2023-06-22T10:15:23;93225.09;;;37.14;51.20
59367;BME280;45163;47.690;11.770;2023-06-22T10:17:49;93219.97;;;37.01;53.72
59367;BME280;45163;47.690;11.770;2023-06-22T10:20:15;93216.72;;;36.74;53.75
59367;BME280;45163;47.690;11.770;2023-06-22T10:22:44;93213.91;;;37.40;50.88
59367;BME280;45163;47.690;11.770;2023-06-22T10:25:12;93204.75;;;36.54;54.78
59367;BME280;45163;47.690;11.770;2023-06-22T10:27:39;93212.94;;;36.59;52.40
59367;BME280;45163;47.690;11.770;2023-06-22T10:30:07;93209.63;;;36.63;53.02
59367;BME280;45163;47.690;11.770;2023-06-22T10:32:33;93213.44;;;37.44;49.23
59367;BME280;45163;47.690;11.770;2023-06-22T10:34:59;93211.63;;;36.29;53.92
59367;BME280;45163;47.690;11.770;2023-06-22T10:37:25;93212.13;;;37.23;50.51
59367;BME280;45163;47.690;11.770;2023-06-22T10:39:51;93208.88;;;35.69;54.91
59367;BME280;45163;47.690;11.770;2023-06-22T10:42:17;93219.72;;;35.41;58.72
59367;BME280;45163;47.690;11.770;2023-06-22T10:44:43;93213.59;;;35.35;59.78
59367;BME280;45163;47.690;11.770;2023-06-22T10:47:10;93209.75;;;34.73;64.74
59367;BME280;45163;47.690;11.770;2023-06-22T10:49:39;93210.50;;;34.73;63.46
59367;BME280;45163;47.690;11.770;2023-06-22T10:52:07;93210.03;;;34.48;62.91
59367;BME280;45163;47.690;11.770;2023-06-22T10:54:34;93192.06;;;35.42;59.43
59367;BME280;45163;47.690;11.770;2023-06-22T10:57:01;93181.38;;;36.34;52.25
59367;BME280;45163;47.690;11.770;2023-06-22T10:59:28;93184.41;;;36.69;49.33
59367;BME280;45163;47.690;11.770;2023-06-22T11:01:55;93186.88;;;37.18;52.21
59367;BME280;45163;47.690;11.770;2023-06-22T11:04:21;93191.91;;;36.86;50.12
59367;BME280;45163;47.690;11.770;2023-06-22T11:06:48;93189.59;;;38.43;44.63
59367;BME280;45163;47.690;11.770;2023-06-22T11:09:16;93185.03;;;38.75;43.06
59367;BME280;45163;47.690;11.770;2023-06-22T11:11:47;93193.47;;;40.00;39.61
59367;BME280;45163;47.690;11.770;2023-06-22T11:14:13;93187.41;;;38.67;39.31
59367;BME280;45163;47.690;11.770;2023-06-22T11:16:39;93184.16;;;39.86;38.30
59367;BME280;45163;47.690;11.770;2023-06-22T11:19:05;93185.25;;;39.16;36.68
59367;BME280;45163;47.690;11.770;2023-06-22T11:21:32;93177.84;;;38.74;37.00
59367;BME280;45163;47.690;11.770;2023-06-22T11:23:59;93179.22;;;37.88;42.25
59367;BME280;45163;47.690;11.770;2023-06-22T11:26:25;93178.47;;;37.31;43.60
59367;BME280;45163;47.690;11.770;2023-06-22T11:28:55;93176.69;;;37.14;44.27
59367;BME280;45163;47.690;11.770;2023-06-22T11:31:21;93175.06;;;37.00;44.54
59367;BME280;45163;47.690;11.770;2023-06-22T11:33:47;93172.50;;;36.61;46.33
59367;BME280;45163;47.690;11.770;2023-06-22T11:36:14;93170.47;;;37.06;42.86
59367;BME280;45163;47.690;11.770;2023-06-22T11:38:40;93160.75;;;36.88;42.34
59367;BME280;45163;47.690;11.770;2023-06-22T11:41:07;93158.03;;;36.90;44.75
59367;BME280;45163;47.690;11.770;2023-06-22T11:43:33;93150.00;;;37.31;42.57
59367;BME280;45163;47.690;11.770;2023-06-22T11:46:00;93146.84;;;38.07;36.15
59367;BME280;45163;47.690;11.770;2023-06-22T11:48:27;93142.97;;;38.87;36.75
59367;BME280;45163;47.690;11.770;2023-06-22T11:50:53;93136.84;;;39.18;34.64
59367;BME280;45163;47.690;11.770;2023-06-22T11:53:21;93136.16;;;40.67;32.21
59367;BME280;45163;47.690;11.770;2023-06-22T11:55:47;93139.56;;;40.50;30.74
59367;BME280;45163;47.690;11.770;2023-06-22T11:58:14;93132.56;;;41.55;29.95
59367;BME280;45163;47.690;11.770;2023-06-22T12:00:40;93128.75;;;41.67;26.26
59367;BME280;45163;47.690;11.770;2023-06-22T12:03:08;93127.19;;;41.64;28.31
59367;BME280;45163;47.690;11.770;2023-06-22T12:05:35;93135.38;;;39.56;29.21
59367;BME280;45163;47.690;11.770;2023-06-22T12:08:01;93130.91;;;39.40;29.51
59367;BME280;45163;47.690;11.770;2023-06-22T12:10:27;93124.75;;;37.26;32.58
59367;BME280;45163;47.690;11.770;2023-06-22T12:12:56;93127.66;;;37.61;31.51
59367;BME280;45163;47.690;11.770;2023-06-22T12:15:23;93125.00;;;37.30;33.90
59367;BME280;45163;47.690;11.770;2023-06-22T12:17:49;93119.47;;;36.99;39.90
59367;BME280;45163;47.690;11.770;2023-06-22T12:20:15;93111.13;;;36.91;45.81
59367;BME280;45163;47.690;11.770;2023-06-22T12:22:41;93114.47;;;36.11;49.64
59367;BME280;45163;47.690;11.770;2023-06-22T12:25:08;93106.78;;;36.02;48.45
59367;BME280;45163;47.690;11.770;2023-06-22T12:27:35;93114.81;;;36.27;50.69
59367;BME280;45163;47.690;11.770;2023-06-22T12:30:02;93115.81;;;35.89;50.74
59367;BME280;45163;47.690;11.770;2023-06-22T12:32:28;93115.56;;;35.54;51.67
59367;BME280;45163;47.690;11.770;2023-06-22T12:34:54;93113.19;;;36.24;49.86
59367;BME280;45163;47.690;11.770;2023-06-22T12:37:21;93112.56;;;35.83;53.04
59367;BME280;45163;47.690;11.770;2023-06-22T12:39:47;93103.06;;;36.76;49.22
59367;BME280;45163;47.690;11.770;2023-06-22T12:42:13;93101.75;;;36.88;49.02
59367;BME280;45163;47.690;11.770;2023-06-22T12:44:39;93095.75;;;37.06;47.77
59367;BME280;45163;47.690;11.770;2023-06-22T12:47:08;93092.03;;;37.03;45.29
59367;BME280;45163;47.690;11.770;2023-06-22T12:49:35;93101.66;;;36.98;46.12
59367;BME280;45163;47.690;11.770;2023-06-22T12:52:02;93096.03;;;36.77;48.50
59367;BME280;45163;47.690;11.770;2023-06-22T12:54:28;93092.41;;;36.64;48.22
59367;BME280;45163;47.690;11.770;2023-06-22T12:56:55;93085.75;;;37.17;45.84
59367;BME280;45163;47.690;11.770;2023-06-22T12:59:21;93097.03;;;37.26;47.16